createdAt,value
2023-03-29T00:02:08.660Z,99756.00
2023-03-29T00:04:35.867Z,99754.00
2023-03-29T00:07:02.900Z,99748.00
2023-03-29T00:09:31.303Z,99751.00
2023-03-29T00:11:59.353Z,99741.00
2023-03-29T00:14:26.951Z,99745.00
2023-03-29T00:16:54.007Z,99749.00
2023-03-29T00:19:20.900Z,99745.00
2023-03-29T00:21:47.844Z,99768.00
2023-03-29T00:24:14.734Z,99750.00
2023-03-29T00:26:41.675Z,99742.00
2023-03-29T00:29:12.268Z,99748.00
2023-03-29T00:31:39.283Z,99757.00
2023-03-29T00:34:06.192Z,99754.00
2023-03-29T00:36:33.153Z,99765.00
2023-03-29T00:39:00.114Z,99757.00
2023-03-29T00:41:27.110Z,99787.00
2023-03-29T00:44:00.212Z,99783.00
2023-03-29T00:46:28.401Z,99772.00
2023-03-29T00:49:06.109Z,99775.00
2023-03-29T00:51:34.033Z,99761.00
2023-03-29T00:54:01.889Z,99751.00
2023-03-29T00:56:31.137Z,99753.00
2023-03-29T00:59:09.766Z,99740.00
2023-03-29T01:01:53.965Z,99766.00
2023-03-29T01:04:37.154Z,99769.00
2023-03-29T01:07:27.897Z,99773.00
2023-03-29T01:10:00.979Z,99757.00
2023-03-29T01:12:32.210Z,99733.00
2023-03-29T01:15:04.344Z,99736.00
2023-03-29T01:17:31.312Z,99740.00
2023-03-29T01:20:03.641Z,99751.00
2023-03-29T01:23:17.173Z,99759.00
2023-03-29T01:26:05.058Z,99746.00
2023-03-29T01:28:36.970Z,99739.00
2023-03-29T01:31:13.517Z,99737.00
2023-03-29T01:33:50.875Z,99736.00
2023-03-29T01:36:20.475Z,99720.00
2023-03-29T01:38:52.821Z,99736.00
2023-03-29T01:41:19.730Z,99716.00
2023-03-29T01:44:11.982Z,99704.00
2023-03-29T01:46:52.275Z,99699.00
2023-03-29T01:49:26.734Z,99674.00
2023-03-29T01:51:57.273Z,99692.00
2023-03-29T01:54:30.833Z,99695.00
2023-03-29T01:56:57.839Z,99714.00
2023-03-29T01:59:28.479Z,99699.00
2023-03-29T02:01:58.981Z,99702.00
2023-03-29T02:04:32.684Z,99702.00
2023-03-29T02:06:59.766Z,99690.00
2023-03-29T02:09:26.817Z,99698.00
2023-03-29T02:11:53.736Z,99707.00
2023-03-29T02:14:20.704Z,99711.00
2023-03-29T02:16:47.620Z,99704.00
2023-03-29T02:19:14.496Z,99712.00
2023-03-29T02:22:21.970Z,99703.00
2023-03-29T02:24:48.942Z,99698.00
2023-03-29T02:27:15.929Z,99695.00
2023-03-29T02:29:42.897Z,99675.00
2023-03-29T02:32:17.212Z,99696.00
2023-03-29T02:34:56.037Z,99685.00
2023-03-29T02:37:22.996Z,99677.00
2023-03-29T02:39:50.036Z,99660.00
2023-03-29T02:42:17.677Z,99674.00
2023-03-29T02:44:44.864Z,99671.00
2023-03-29T02:47:26.683Z,99677.00
2023-03-29T02:49:53.614Z,99678.00
2023-03-29T02:52:24.880Z,99686.00
2023-03-29T02:54:52.604Z,99670.00
2023-03-29T02:57:23.573Z,99690.00
2023-03-29T02:59:50.555Z,99700.00
2023-03-29T03:02:17.649Z,99702.00
2023-03-29T03:04:44.810Z,99699.00
2023-03-29T03:07:11.826Z,99687.00
2023-03-29T03:09:38.811Z,99689.00
2023-03-29T03:12:06.120Z,99684.00
2023-03-29T03:14:33.074Z,99677.00
2023-03-29T03:17:02.413Z,99679.00
2023-03-29T03:19:31.220Z,99675.00
2023-03-29T03:21:58.129Z,99680.00
2023-03-29T03:24:25.169Z,99677.00
2023-03-29T03:26:52.133Z,99663.00
2023-03-29T03:29:19.046Z,99673.00
2023-03-29T03:31:46.052Z,99670.00
2023-03-29T03:34:12.957Z,99682.00
2023-03-29T03:36:39.939Z,99677.00
2023-03-29T03:39:07.203Z,99670.00
2023-03-29T03:41:34.629Z,99664.00
2023-03-29T03:44:01.609Z,99669.00
2023-03-29T03:46:29.727Z,99671.00
2023-03-29T03:48:56.955Z,99669.00
2023-03-29T03:51:24.010Z,99646.00
2023-03-29T03:53:51.058Z,99647.00
2023-03-29T03:56:18.023Z,99634.00
2023-03-29T03:58:45.037Z,99650.00
2023-03-29T04:01:12.080Z,99653.00
2023-03-29T04:03:39.103Z,99633.00
2023-03-29T04:06:06.428Z,99632.00
2023-03-29T04:08:33.412Z,99622.00
2023-03-29T04:11:00.602Z,99632.00
2023-03-29T04:13:27.869Z,99647.00
2023-03-29T04:15:55.306Z,99660.00
2023-03-29T04:18:23.613Z,99659.00
2023-03-29T04:20:50.698Z,99682.00
2023-03-29T04:23:17.681Z,99672.00
2023-03-29T04:25:44.604Z,99659.00
2023-03-29T04:28:11.902Z,99663.00
2023-03-29T04:30:39.029Z,99672.00
2023-03-29T04:33:06.082Z,99658.00
2023-03-29T04:35:33.134Z,99657.00
2023-03-29T04:38:00.178Z,99674.00
2023-03-29T04:40:27.295Z,99666.00
2023-03-29T04:42:54.294Z,99673.00
2023-03-29T04:45:21.396Z,99655.00
2023-03-29T04:47:48.430Z,99676.00
2023-03-29T04:50:21.502Z,99667.00
2023-03-29T04:52:48.507Z,99667.00
2023-03-29T04:55:15.514Z,99662.00
2023-03-29T04:57:42.611Z,99667.00
2023-03-29T05:00:10.281Z,99680.00
2023-03-29T05:02:37.189Z,99676.00
2023-03-29T05:05:04.672Z,99660.00
2023-03-29T05:07:31.636Z,99691.00
2023-03-29T05:09:58.628Z,99695.00
2023-03-29T05:12:25.592Z,99692.00
2023-03-29T05:14:52.787Z,99701.00
2023-03-29T05:17:19.795Z,99691.00
2023-03-29T05:19:46.750Z,99682.00
2023-03-29T05:22:13.967Z,99670.00
2023-03-29T05:24:40.905Z,99691.00
2023-03-29T05:27:07.906Z,99696.00
2023-03-29T05:29:34.978Z,99705.00
2023-03-29T05:32:02.132Z,99708.00
2023-03-29T05:34:29.122Z,99689.00
2023-03-29T05:36:56.160Z,99680.00
2023-03-29T05:39:23.118Z,99691.00
2023-03-29T05:41:50.069Z,99686.00
2023-03-29T05:44:17.134Z,99691.00
2023-03-29T05:46:44.104Z,99689.00
2023-03-29T05:49:11.049Z,99698.00
2023-03-29T05:51:37.975Z,99674.00
2023-03-29T05:54:05.211Z,99697.00
2023-03-29T05:56:32.170Z,99701.00
2023-03-29T05:58:59.127Z,99705.00
2023-03-29T06:01:26.366Z,99686.00
2023-03-29T06:03:53.515Z,99697.00
2023-03-29T06:06:20.639Z,99685.00
2023-03-29T06:08:47.665Z,99688.00
2023-03-29T06:11:15.016Z,99702.00
2023-03-29T06:13:42.017Z,99679.00
2023-03-29T06:16:10.521Z,99691.00
2023-03-29T06:18:37.659Z,99695.00
2023-03-29T06:21:05.149Z,99697.00
2023-03-29T06:23:32.444Z,99711.00
2023-03-29T06:25:59.519Z,99719.00
2023-03-29T06:28:26.496Z,99703.00
2023-03-29T06:30:53.457Z,99700.00
2023-03-29T06:33:20.593Z,99714.00
2023-03-29T06:35:48.333Z,99725.00
2023-03-29T06:38:15.691Z,99737.00
2023-03-29T06:40:42.654Z,99738.00
2023-03-29T06:43:09.619Z,99741.00
2023-03-29T06:45:37.598Z,99715.00
2023-03-29T06:48:05.154Z,99690.00
2023-03-29T06:50:32.482Z,99706.00
2023-03-29T06:52:59.450Z,99711.00
2023-03-29T06:55:26.497Z,99678.00
2023-03-29T06:57:54.462Z,99688.00
2023-03-29T07:00:21.817Z,99690.00
2023-03-29T07:02:48.842Z,99714.00
2023-03-29T07:05:16.022Z,99703.00
2023-03-29T07:07:45.058Z,99713.00
2023-03-29T07:10:12.027Z,99715.00
2023-03-29T07:12:38.916Z,99710.00
2023-03-29T07:15:06.443Z,99722.00
2023-03-29T07:17:33.503Z,99709.00
2023-03-29T07:20:00.458Z,99705.00
2023-03-29T07:22:27.378Z,99728.00
2023-03-29T07:24:54.294Z,99719.00
2023-03-29T07:27:21.225Z,99704.00
2023-03-29T07:29:48.148Z,99714.00
2023-03-29T07:32:15.048Z,99714.00
2023-03-29T07:34:42.041Z,99733.00
2023-03-29T07:37:08.936Z,99729.00
2023-03-29T07:39:35.914Z,99739.00
2023-03-29T07:42:02.848Z,99734.00
2023-03-29T07:44:29.775Z,99735.00
2023-03-29T07:46:56.719Z,99721.00
2023-03-29T07:49:23.699Z,99725.00
2023-03-29T07:51:50.586Z,99708.00
2023-03-29T07:54:17.574Z,99713.00
2023-03-29T07:56:44.548Z,99696.00
2023-03-29T07:59:11.489Z,99675.00
2023-03-29T08:01:38.379Z,99663.00
2023-03-29T08:04:05.619Z,99674.00
2023-03-29T08:06:32.792Z,99689.00
2023-03-29T08:08:59.770Z,99693.00
2023-03-29T08:11:26.668Z,99688.00
2023-03-29T08:13:53.531Z,99680.00
2023-03-29T08:16:20.464Z,99690.00
2023-03-29T08:18:47.391Z,99693.00
2023-03-29T08:21:14.337Z,99682.00
2023-03-29T08:23:41.246Z,99693.00
2023-03-29T08:26:08.265Z,99693.00
2023-03-29T08:28:35.137Z,99702.00
2023-03-29T08:31:04.730Z,99704.00
2023-03-29T08:33:31.829Z,99695.00
2023-03-29T08:35:58.730Z,99702.00
2023-03-29T08:38:25.629Z,99710.00
2023-03-29T08:40:52.572Z,99707.00
2023-03-29T08:43:30.520Z,99706.00
2023-03-29T08:46:12.622Z,99710.00
2023-03-29T08:48:43.841Z,99737.00
2023-03-29T08:51:36.463Z,99724.00
2023-03-29T08:54:07.580Z,99731.00
2023-03-29T08:56:35.773Z,99720.00
2023-03-29T08:59:02.639Z,99720.00
2023-03-29T09:01:33.756Z,99718.00
2023-03-29T09:04:03.314Z,99734.00
2023-03-29T09:06:30.336Z,99725.00
2023-03-29T09:08:57.225Z,99726.00
2023-03-29T09:11:24.088Z,99723.00
2023-03-29T09:14:21.606Z,99731.00
2023-03-29T09:17:21.968Z,99733.00
2023-03-29T09:20:21.714Z,99733.00
2023-03-29T09:23:13.110Z,99737.00
2023-03-29T09:26:03.665Z,99752.00
2023-03-29T09:28:36.517Z,99761.00
2023-03-29T09:31:15.043Z,99786.00
2023-03-29T09:33:58.097Z,99762.00
2023-03-29T09:36:30.586Z,99767.00
2023-03-29T09:38:57.459Z,99748.00
2023-03-29T09:41:43.689Z,99733.00
2023-03-29T09:44:30.169Z,99727.00
2023-03-29T09:47:28.295Z,99724.00
2023-03-29T09:50:03.301Z,99730.00
2023-03-29T09:52:30.223Z,99745.00
2023-03-29T09:54:57.153Z,99729.00
2023-03-29T09:57:25.651Z,99740.00
2023-03-29T09:59:52.602Z,99746.00
2023-03-29T10:02:20.793Z,99736.00
2023-03-29T10:04:55.116Z,99718.00
2023-03-29T10:07:22.072Z,99722.00
2023-03-29T10:09:49.173Z,99731.00
2023-03-29T10:12:16.142Z,99742.00
2023-03-29T10:14:45.124Z,99726.00
2023-03-29T10:17:26.368Z,99724.00
2023-03-29T10:19:57.299Z,99731.00
2023-03-29T10:22:33.336Z,99724.00
2023-03-29T10:25:00.302Z,99719.00
2023-03-29T10:27:28.506Z,99720.00
2023-03-29T10:29:55.797Z,99724.00
2023-03-29T10:32:22.748Z,99715.00
2023-03-29T10:34:50.423Z,99712.00
2023-03-29T10:37:18.122Z,99716.00
2023-03-29T10:39:45.783Z,99705.00
2023-03-29T10:42:18.222Z,99714.00
2023-03-29T10:44:57.500Z,99703.00
2023-03-29T10:47:24.711Z,99702.00
2023-03-29T10:49:56.828Z,99715.00
2023-03-29T10:52:24.541Z,99706.00
2023-03-29T10:54:53.060Z,99699.00
2023-03-29T10:57:49.080Z,99698.00
2023-03-29T11:00:26.812Z,99688.00
2023-03-29T11:03:13.117Z,99693.00
2023-03-29T11:05:59.383Z,99698.00
2023-03-29T11:08:51.348Z,99691.00
2023-03-29T11:11:56.225Z,99677.00
2023-03-29T11:15:14.953Z,99674.00
2023-03-29T11:18:06.385Z,99684.00
2023-03-29T11:20:45.958Z,99676.00
2023-03-29T11:23:34.433Z,99671.00
2023-03-29T11:26:25.644Z,99685.00
2023-03-29T11:29:11.716Z,99686.00
2023-03-29T11:31:52.869Z,99699.00
2023-03-29T11:34:31.632Z,99698.00
2023-03-29T11:37:07.353Z,99674.00
2023-03-29T11:39:47.017Z,99670.00
2023-03-29T11:42:18.402Z,99669.00
2023-03-29T11:44:45.377Z,99663.00
2023-03-29T11:47:20.798Z,99644.00
2023-03-29T11:49:54.838Z,99655.00
2023-03-29T11:52:45.529Z,99662.00
2023-03-29T11:55:18.364Z,99639.00
2023-03-29T11:57:54.284Z,99653.00
2023-03-29T12:00:37.519Z,99647.00
2023-03-29T12:03:16.398Z,99651.00
2023-03-29T12:05:56.946Z,99637.00
2023-03-29T12:08:35.561Z,99632.00
2023-03-29T12:11:08.506Z,99641.00
2023-03-29T12:13:49.704Z,99638.00
2023-03-29T12:16:31.850Z,99628.00
2023-03-29T12:19:25.145Z,99639.00
2023-03-29T12:21:52.050Z,99620.00
2023-03-29T12:24:18.990Z,99611.00
2023-03-29T12:27:26.790Z,99588.00
2023-03-29T12:30:19.721Z,99589.00
2023-03-29T12:33:20.771Z,99581.00
2023-03-29T12:36:24.722Z,99577.00
2023-03-29T12:38:51.876Z,99568.00
2023-03-29T12:41:21.006Z,99551.00
2023-03-29T12:43:50.712Z,99551.00
2023-03-29T12:46:26.369Z,99546.00
2023-03-29T12:48:59.897Z,99544.00
2023-03-29T12:51:31.854Z,99541.00
2023-03-29T12:54:19.567Z,99542.00
2023-03-29T12:56:52.479Z,99556.00
2023-03-29T12:59:38.601Z,99563.00
2023-03-29T13:02:14.952Z,99575.00
2023-03-29T13:04:53.953Z,99579.00
2023-03-29T13:07:24.096Z,99568.00
2023-03-29T13:09:58.604Z,99583.00
2023-03-29T13:12:32.100Z,99583.00
2023-03-29T13:15:16.241Z,99572.00
2023-03-29T13:18:12.383Z,99575.00
2023-03-29T13:21:03.937Z,99576.00
2023-03-29T13:23:48.891Z,99571.00
2023-03-29T13:26:55.317Z,99567.00
2023-03-29T13:29:53.298Z,99562.00
2023-03-29T13:32:44.966Z,99563.00
2023-03-29T13:35:25.701Z,99564.00
2023-03-29T13:38:08.469Z,99563.00
2023-03-29T13:40:41.464Z,99546.00
2023-03-29T13:43:29.534Z,99544.00
2023-03-29T13:45:59.535Z,99551.00
2023-03-29T13:48:35.464Z,99537.00
2023-03-29T13:51:24.201Z,99534.00
2023-03-29T13:54:21.118Z,99544.00
2023-03-29T13:57:08.573Z,99550.00
2023-03-29T13:59:57.265Z,99544.00
2023-03-29T14:02:30.348Z,99538.00
2023-03-29T14:04:57.360Z,99535.00
2023-03-29T14:07:24.291Z,99536.00
2023-03-29T14:09:51.178Z,99532.00
2023-03-29T14:12:18.059Z,99533.00
2023-03-29T14:14:58.257Z,99529.00
2023-03-29T14:17:25.976Z,99512.00
2023-03-29T14:19:53.238Z,99515.00
2023-03-29T14:22:20.877Z,99521.00
2023-03-29T14:24:56.802Z,99511.00
2023-03-29T14:27:23.774Z,99521.00
2023-03-29T14:29:52.691Z,99510.00
2023-03-29T14:32:27.992Z,99527.00
2023-03-29T14:34:54.921Z,99510.00
2023-03-29T14:37:27.396Z,99516.00
2023-03-29T14:39:54.772Z,99526.00
2023-03-29T14:42:25.916Z,99509.00
2023-03-29T14:44:58.732Z,99511.00
2023-03-29T14:47:30.322Z,99503.00
2023-03-29T14:49:57.273Z,99509.00
2023-03-29T14:52:24.390Z,99510.00
2023-03-29T14:54:53.390Z,99486.00
2023-03-29T14:57:23.572Z,99504.00
2023-03-29T14:59:58.912Z,99504.00
2023-03-29T15:02:30.577Z,99496.00
2023-03-29T15:05:05.503Z,99498.00
2023-03-29T15:07:35.752Z,99487.00
2023-03-29T15:10:03.985Z,99497.00
2023-03-29T15:12:31.689Z,99500.00
2023-03-29T15:14:58.603Z,99491.00
2023-03-29T15:17:47.715Z,99492.00
2023-03-29T15:20:38.380Z,99484.00
2023-03-29T15:23:17.250Z,99483.00
2023-03-29T15:25:51.292Z,99478.00
2023-03-29T15:28:34.313Z,99468.00
2023-03-29T15:31:11.177Z,99472.00
2023-03-29T15:33:40.493Z,99469.00
2023-03-29T15:36:09.461Z,99473.00
2023-03-29T15:38:43.034Z,99473.00
2023-03-29T15:41:11.608Z,99470.00
2023-03-29T15:43:38.498Z,99470.00
2023-03-29T15:46:05.674Z,99463.00
2023-03-29T15:48:32.770Z,99466.00
2023-03-29T15:51:01.958Z,99463.00
2023-03-29T15:53:30.772Z,99463.00
2023-03-29T15:56:00.536Z,99467.00
2023-03-29T15:58:29.974Z,99469.00
2023-03-29T16:01:22.320Z,99466.00
2023-03-29T16:03:49.857Z,99469.00
2023-03-29T16:06:16.935Z,99467.00
2023-03-29T16:08:43.840Z,99460.00
2023-03-29T16:11:10.688Z,99452.00
2023-03-29T16:13:37.690Z,99456.00
2023-03-29T16:16:05.353Z,99457.00
2023-03-29T16:18:32.408Z,99459.00
2023-03-29T16:20:59.309Z,99464.00
2023-03-29T16:23:26.239Z,99463.00
2023-03-29T16:25:53.140Z,99455.00
2023-03-29T16:28:20.073Z,99468.00
2023-03-29T16:30:47.091Z,99461.00
2023-03-29T16:33:14.143Z,99467.00
2023-03-29T16:35:41.143Z,99468.00
2023-03-29T16:38:08.506Z,99469.00
2023-03-29T16:40:36.254Z,99463.00
2023-03-29T16:43:03.289Z,99472.00
2023-03-29T16:45:30.215Z,99473.00
2023-03-29T16:47:57.312Z,99473.00
2023-03-29T16:50:24.352Z,99475.00
2023-03-29T16:52:51.306Z,99455.00
2023-03-29T16:55:18.694Z,99462.00
2023-03-29T16:57:46.947Z,99462.00
2023-03-29T17:00:15.448Z,99464.00
2023-03-29T17:02:43.387Z,99458.00
2023-03-29T17:05:11.651Z,99470.00
2023-03-29T17:07:39.052Z,99464.00
2023-03-29T17:10:07.827Z,99465.00
2023-03-29T17:12:34.822Z,99474.00
2023-03-29T17:15:01.746Z,99468.00
2023-03-29T17:17:28.732Z,99467.00
2023-03-29T17:19:56.290Z,99468.00
2023-03-29T17:22:24.023Z,99466.00
2023-03-29T17:24:51.013Z,99460.00
2023-03-29T17:27:18.400Z,99468.00
2023-03-29T17:29:45.331Z,99464.00
2023-03-29T17:32:12.222Z,99469.00
2023-03-29T17:34:39.109Z,99478.00
2023-03-29T17:37:06.013Z,99477.00
2023-03-29T17:39:33.032Z,99473.00
2023-03-29T17:41:59.963Z,99481.00
2023-03-29T17:44:26.886Z,99482.00
2023-03-29T17:46:53.839Z,99492.00
2023-03-29T17:49:20.832Z,99494.00
2023-03-29T17:51:47.802Z,99494.00
2023-03-29T17:54:14.716Z,99502.00
2023-03-29T17:56:41.721Z,99494.00
2023-03-29T17:59:08.685Z,99493.00
2023-03-29T18:01:38.532Z,99479.00
2023-03-29T18:04:06.130Z,99503.00
2023-03-29T18:06:33.121Z,99491.00
2023-03-29T18:09:00.053Z,99501.00
2023-03-29T18:11:27.124Z,99502.00
2023-03-29T18:13:54.213Z,99501.00
2023-03-29T18:16:21.934Z,99501.00
2023-03-29T18:18:49.028Z,99515.00
2023-03-29T18:21:16.362Z,99524.00
2023-03-29T18:23:47.579Z,99523.00
2023-03-29T18:26:15.712Z,99532.00
2023-03-29T18:28:44.180Z,99523.00
2023-03-29T18:31:11.112Z,99529.00
2023-03-29T18:33:38.034Z,99523.00
2023-03-29T18:36:08.410Z,99523.00
2023-03-29T18:38:36.991Z,99541.00
2023-03-29T18:41:04.217Z,99528.00
2023-03-29T18:43:31.885Z,99537.00
2023-03-29T18:45:58.823Z,99542.00
2023-03-29T18:48:25.834Z,99548.00
2023-03-29T18:50:52.766Z,99552.00
2023-03-29T18:53:20.058Z,99541.00
2023-03-29T18:55:47.212Z,99551.00
2023-03-29T18:58:14.743Z,99549.00
2023-03-29T19:00:42.021Z,99565.00
2023-03-29T19:03:09.123Z,99565.00
2023-03-29T19:05:39.651Z,99572.00
2023-03-29T19:08:07.053Z,99580.00
2023-03-29T19:10:38.146Z,99588.00
2023-03-29T19:13:05.182Z,99575.00
2023-03-29T19:15:32.466Z,99588.00
2023-03-29T19:17:59.526Z,99593.00
2023-03-29T19:20:26.496Z,99586.00
2023-03-29T19:22:53.632Z,99581.00
2023-03-29T19:25:20.533Z,99592.00
2023-03-29T19:27:47.549Z,99588.00
2023-03-29T19:30:14.654Z,99598.00
2023-03-29T19:32:41.613Z,99604.00
2023-03-29T19:35:09.087Z,99600.00
2023-03-29T19:37:35.992Z,99599.00
2023-03-29T19:40:02.941Z,99606.00
2023-03-29T19:42:29.866Z,99612.00
2023-03-29T19:44:56.811Z,99609.00
2023-03-29T19:47:23.710Z,99607.00
2023-03-29T19:49:51.896Z,99609.00
2023-03-29T19:52:18.809Z,99613.00
2023-03-29T19:54:45.698Z,99606.00
2023-03-29T19:57:12.601Z,99621.00
2023-03-29T19:59:39.505Z,99624.00
2023-03-29T20:02:06.839Z,99629.00
2023-03-29T20:04:33.896Z,99629.00
2023-03-29T20:07:00.920Z,99626.00
2023-03-29T20:09:27.835Z,99618.00
2023-03-29T20:11:54.770Z,99637.00
2023-03-29T20:14:21.681Z,99632.00
2023-03-29T20:16:48.557Z,99642.00
2023-03-29T20:19:15.484Z,99645.00
2023-03-29T20:21:42.805Z,99644.00
2023-03-29T20:24:09.943Z,99643.00
2023-03-29T20:26:36.995Z,99643.00
2023-03-29T20:29:03.993Z,99644.00
2023-03-29T20:31:30.872Z,99639.00
2023-03-29T20:33:57.812Z,99642.00
2023-03-29T20:36:24.844Z,99639.00
2023-03-29T20:38:51.905Z,99630.00
2023-03-29T20:41:18.929Z,99634.00
2023-03-29T20:43:46.043Z,99635.00
2023-03-29T20:46:12.961Z,99643.00
2023-03-29T20:48:42.675Z,99650.00
2023-03-29T20:51:09.607Z,99649.00
2023-03-29T20:53:36.504Z,99654.00
2023-03-29T20:56:03.944Z,99654.00
2023-03-29T20:58:30.867Z,99658.00
2023-03-29T21:00:57.893Z,99657.00
2023-03-29T21:03:24.882Z,99647.00
2023-03-29T21:05:54.405Z,99634.00
2023-03-29T21:08:21.395Z,99633.00
2023-03-29T21:10:48.358Z,99628.00
2023-03-29T21:13:15.299Z,99649.00
2023-03-29T21:15:42.298Z,99649.00
2023-03-29T21:18:09.304Z,99649.00
2023-03-29T21:20:36.955Z,99646.00
2023-03-29T21:23:03.958Z,99647.00
2023-03-29T21:25:30.896Z,99649.00
2023-03-29T21:27:57.800Z,99650.00
2023-03-29T21:30:24.692Z,99654.00
2023-03-29T21:32:51.660Z,99644.00
2023-03-29T21:35:18.839Z,99659.00
2023-03-29T21:37:45.738Z,99658.00
2023-03-29T21:40:13.385Z,99646.00
2023-03-29T21:42:40.276Z,99638.00
2023-03-29T21:45:08.266Z,99649.00
2023-03-29T21:47:35.217Z,99641.00
2023-03-29T21:50:02.149Z,99649.00
2023-03-29T21:52:29.237Z,99654.00
2023-03-29T21:54:56.203Z,99646.00
2023-03-29T21:57:23.159Z,99638.00
2023-03-29T21:59:50.113Z,99638.00
2023-03-29T22:02:17.141Z,99631.00
2023-03-29T22:07:25.056Z,99649.00
2023-03-29T22:09:51.946Z,99646.00
2023-03-29T22:12:18.803Z,99647.00
2023-03-29T22:14:45.812Z,99651.00
2023-03-29T22:17:12.727Z,99633.00
2023-03-29T22:19:39.978Z,99647.00
2023-03-29T22:22:07.588Z,99647.00
2023-03-29T22:24:34.551Z,99659.00
2023-03-29T22:27:01.539Z,99659.00
2023-03-29T22:29:28.445Z,99651.00
2023-03-29T22:31:55.398Z,99662.00
2023-03-29T22:34:22.379Z,99665.00
2023-03-29T22:36:49.423Z,99669.00
2023-03-29T22:39:16.312Z,99671.00
2023-03-29T22:41:43.240Z,99670.00
2023-03-29T22:44:10.191Z,99674.00
2023-03-29T22:46:37.121Z,99670.00
2023-03-29T22:49:04.083Z,99652.00
2023-03-29T22:51:31.005Z,99662.00
2023-03-29T22:53:57.936Z,99652.00
2023-03-29T22:56:24.906Z,99663.00
2023-03-29T22:58:51.837Z,99671.00
2023-03-29T23:01:18.788Z,99667.00
2023-03-29T23:03:45.733Z,99660.00
2023-03-29T23:06:12.647Z,99668.00
2023-03-29T23:08:39.548Z,99671.00
2023-03-29T23:11:06.798Z,99672.00
2023-03-29T23:13:34.536Z,99675.00
2023-03-29T23:16:02.065Z,99657.00
2023-03-29T23:18:29.623Z,99663.00
2023-03-29T23:20:57.748Z,99669.00
2023-03-29T23:23:25.673Z,99665.00
2023-03-29T23:25:53.081Z,99659.00
2023-03-29T23:28:23.682Z,99657.00
2023-03-29T23:31:08.504Z,99666.00
2023-03-29T23:33:36.201Z,99662.00
2023-03-29T23:36:04.566Z,99669.00
2023-03-29T23:38:33.017Z,99662.00
2023-03-29T23:41:01.340Z,99659.00
2023-03-29T23:43:29.486Z,99667.00
2023-03-29T23:45:57.398Z,99671.00
2023-03-29T23:48:24.556Z,99649.00
2023-03-29T23:50:51.916Z,99657.00
2023-03-29T23:53:19.410Z,99668.00
2023-03-29T23:55:47.193Z,99665.00
2023-03-29T23:58:14.872Z,99667.00
